Time;durP1;ratioP1;P1;durP2;ratioP2;P2;SDS_P1;SDS_P2;PMS_P1;PMS_P2;Temp;Humidity;BMP_temperature;BMP_pressure;BME280_temperature;BME280_humidity;BME280_pressure;Samples;Min_cycle;Max_cycle;Signal;HPM_P1;HPM_P2
2022/03/05 00:01:53;;;;;;;;;;;;;;;29.98;19.04;100742.44;5081704;28;867;-37
2022/03/05 00:04:18;;;;;;;;;;;;;;;29.57;19.52;100741.38;5075844;28;899;-38
2022/03/05 00:06:43;;;;;;;;;;;;;;;30.16;19.16;100739.13;5086130;28;1155;-38
2022/03/05 00:09:09;;;;;;;;;;;;;;;30.24;18.83;100750.91;5095651;28;864;-38
2022/03/05 00:11:35;;;;;;;;;;;;;;;30.35;18.88;100742.16;5095988;28;831;-40
2022/03/05 00:14:00;;;;;;;;;;;;;;;30.53;18.79;100751.59;5095595;28;873;-42
2022/03/05 00:16:26;;;;;;;;;;;;;;;30.56;18.66;100748.47;5091768;28;813;-37
2022/03/05 00:18:51;;;;;;;;;;;;;;;30.64;18.92;100736.56;5092915;28;1897;-36
2022/03/05 00:21:16;;;;;;;;;;;;;;;30.05;19.01;100728.88;5095723;28;834;-39
2022/03/05 00:23:42;;;;;;;;;;;;;;;29.76;19.56;100725.47;5096093;28;726;-36
2022/03/05 00:26:07;;;;;;;;;;;;;;;29.73;19.64;100726.69;5095603;28;881;-37
2022/03/05 00:28:33;;;;;;;;;;;;;;;29.92;19.29;100729.69;5096083;28;889;-41
2022/03/05 00:31:00;;;;;;;;;;;;;;;30.08;19.31;100730.38;5082599;28;874;-38
2022/03/05 00:33:25;;;;;;;;;;;;;;;30.28;19.10;100727.75;5076068;28;833;-39
2022/03/05 00:35:51;;;;;;;;;;;;;;;30.44;18.96;100731.94;5068256;28;1456;-37
2022/03/05 00:38:16;;;;;;;;;;;;;;;30.51;18.79;100730.06;5076372;28;1890;-37
2022/03/05 00:40:42;;;;;;;;;;;;;;;30.79;18.45;100734.50;5075779;28;778;-39
2022/03/05 00:43:07;;;;;;;;;;;;;;;30.14;19.16;100732.25;5076196;28;778;-38
2022/03/05 00:45:32;;;;;;;;;;;;;;;29.79;19.54;100722.34;5092157;28;879;-38
2022/03/05 00:47:58;;;;;;;;;;;;;;;30.11;19.15;100727.25;5075997;28;929;-37
2022/03/05 00:50:23;;;;;;;;;;;;;;;30.28;19.37;100723.13;5075847;28;1158;-37
2022/03/05 00:52:48;;;;;;;;;;;;;;;30.38;18.92;100720.03;5075811;28;786;-38
2022/03/05 00:55:14;;;;;;;;;;;;;;;30.58;18.53;100716.50;5075348;28;813;-37
2022/03/05 00:57:39;;;;;;;;;;;;;;;30.58;18.72;100721.91;5084211;28;1902;-39
2022/03/05 01:00:04;;;;;;;;;;;;;;;30.09;18.55;100718.47;5095377;28;916;-39
2022/03/05 01:02:31;;;;;;;;;;;;;;;29.63;19.63;100721.63;5088903;28;731;-37
2022/03/05 01:04:56;;;;;;;;;;;;;;;29.46;19.94;100708.38;5095489;28;787;-36
2022/03/05 01:07:21;;;;;;;;;;;;;;;29.67;19.89;100714.78;5095234;28;1067;-37
2022/03/05 01:09:47;;;;;;;;;;;;;;;29.60;19.91;100713.06;5079752;28;758;-37
2022/03/05 01:12:12;;;;;;;;;;;;;;;29.76;19.59;100715.44;5075905;28;758;-37
2022/03/05 01:14:37;;;;;;;;;;;;;;;30.04;19.37;100717.22;5057291;28;838;-37
2022/03/05 01:17:03;;;;;;;;;;;;;;;30.28;19.13;100720.44;5083519;28;843;-38
2022/03/05 01:19:28;;;;;;;;;;;;;;;30.52;18.88;100722.75;5095326;28;1975;-38
2022/03/05 01:21:53;;;;;;;;;;;;;;;30.49;18.92;100720.47;5081164;28;861;-37
2022/03/05 01:24:18;;;;;;;;;;;;;;;30.01;19.33;100720.31;5095230;28;881;-37
2022/03/05 01:26:44;;;;;;;;;;;;;;;29.56;19.53;100712.63;5095626;28;781;-39
2022/03/05 01:29:09;;;;;;;;;;;;;;;30.23;19.12;100709.34;5094917;28;750;-38
2022/03/05 01:31:34;;;;;;;;;;;;;;;30.43;19.16;100705.81;5080912;28;1071;-39
2022/03/05 01:34:00;;;;;;;;;;;;;;;30.57;18.75;100705.84;5077090;28;775;-37
2022/03/05 01:36:25;;;;;;;;;;;;;;;30.63;18.84;100708.56;5098328;28;881;-39
2022/03/05 01:38:50;;;;;;;;;;;;;;;30.43;18.84;100705.81;5098896;28;1897;-39
2022/03/05 01:41:16;;;;;;;;;;;;;;;30.04;19.54;100719.09;5098348;28;902;-39
2022/03/05 01:43:41;;;;;;;;;;;;;;;29.61;20.06;100712.03;5098702;28;829;-39
2022/03/05 01:46:06;;;;;;;;;;;;;;;29.45;20.32;100714.00;5072264;28;731;-38
2022/03/05 01:48:31;;;;;;;;;;;;;;;29.57;19.84;100712.41;5098001;28;887;-38
2022/03/05 01:50:57;;;;;;;;;;;;;;;29.61;20.14;100709.31;5098007;28;783;-38
2022/03/05 01:53:22;;;;;;;;;;;;;;;29.94;19.63;100708.63;5098411;28;758;-37
2022/03/05 01:55:47;;;;;;;;;;;;;;;30.27;19.14;100707.91;5098516;28;880;-37
2022/03/05 01:58:13;;;;;;;;;;;;;;;30.43;19.09;100711.25;5097694;28;1959;-38
2022/03/05 02:00:38;;;;;;;;;;;;;;;30.52;19.22;100711.91;5070393;28;799;-37
2022/03/05 02:03:03;;;;;;;;;;;;;;;30.02;19.45;100704.88;5092731;28;897;-39
2022/03/05 02:05:29;;;;;;;;;;;;;;;29.67;19.77;100712.06;5097555;28;1444;-38
2022/03/05 02:07:54;;;;;;;;;;;;;;;30.15;19.42;100710.34;5097741;28;1165;-37
2022/03/05 02:10:20;;;;;;;;;;;;;;;30.24;19.21;100712.91;5098363;28;722;-36
2022/03/05 02:12:45;;;;;;;;;;;;;;;30.33;19.22;100717.09;5088501;28;809;-37
2022/03/05 02:15:10;;;;;;;;;;;;;;;30.37;19.20;100722.94;5078444;28;833;-37
2022/03/05 02:17:36;;;;;;;;;;;;;;;30.42;19.06;100712.31;5089483;28;1971;-38
2022/03/05 02:20:01;;;;;;;;;;;;;;;30.53;19.04;100719.03;5097737;28;1121;-38
2022/03/05 02:22:27;;;;;;;;;;;;;;;30.04;19.41;100727.22;5097942;28;926;-38
2022/03/05 02:24:53;;;;;;;;;;;;;;;29.79;19.60;100725.91;5089019;28;1278;-38
2022/03/05 02:27:20;;;;;;;;;;;;;;;29.97;19.53;100724.50;5079633;28;904;-38
2022/03/05 02:29:45;;;;;;;;;;;;;;;29.81;19.98;100729.22;5053837;28;762;-38
2022/03/05 02:32:10;;;;;;;;;;;;;;;29.57;20.09;100720.53;5088517;28;890;-38
2022/03/05 02:34:36;;;;;;;;;;;;;;;29.37;20.51;100727.72;5097915;28;751;-39
2022/03/05 02:37:01;;;;;;;;;;;;;;;29.18;20.76;100721.97;5097593;28;741;-39
2022/03/05 02:39:26;;;;;;;;;;;;;;;29.02;20.76;100723.94;5096017;28;1898;-38
2022/03/05 02:41:52;;;;;;;;;;;;;;;28.99;20.90;100726.22;5097452;28;857;-39
2022/03/05 02:44:17;;;;;;;;;;;;;;;29.24;20.83;100723.03;5079209;28;786;-38
2022/03/05 02:46:42;;;;;;;;;;;;;;;29.58;20.10;100722.22;5094617;28;822;-37
2022/03/05 02:49:08;;;;;;;;;;;;;;;29.83;19.97;100723.59;5097436;28;809;-37
2022/03/05 02:51:33;;;;;;;;;;;;;;;30.24;19.46;100719.19;5085576;28;766;-38
2022/03/05 02:53:58;;;;;;;;;;;;;;;30.58;19.08;100716.50;5097082;28;827;-37
2022/03/05 02:56:23;;;;;;;;;;;;;;;30.37;19.14;100714.81;5097804;28;1046;-38
2022/03/05 02:58:49;;;;;;;;;;;;;;;29.95;19.65;100718.44;5096978;28;1901;-37
2022/03/05 03:01:14;;;;;;;;;;;;;;;29.85;19.81;100724.22;5089223;28;858;-37
2022/03/05 03:03:39;;;;;;;;;;;;;;;30.19;19.56;100722.47;5095786;28;721;-38
2022/03/05 03:06:06;;;;;;;;;;;;;;;30.19;19.50;100732.50;5096853;28;1041;-36
2022/03/05 03:08:31;;;;;;;;;;;;;;;30.24;19.51;100735.47;5096596;28;762;-37
2022/03/05 03:10:57;;;;;;;;;;;;;;;30.14;19.48;100743.13;5097171;28;845;-38
2022/03/05 03:13:22;;;;;;;;;;;;;;;30.25;19.43;100745.25;5096853;28;818;-38
2022/03/05 03:15:47;;;;;;;;;;;;;;;30.14;19.27;100743.97;5090166;28;962;-38
2022/03/05 03:18:15;;;;;;;;;;;;;;;29.82;19.82;100744.47;5077123;28;1888;-37
2022/03/05 03:20:40;;;;;;;;;;;;;;;30.27;19.45;100742.34;5076862;28;892;-38
2022/03/05 03:23:06;;;;;;;;;;;;;;;30.29;19.30;100741.13;5077473;28;721;-37
2022/03/05 03:25:31;;;;;;;;;;;;;;;30.25;19.38;100744.41;5077665;28;838;-37
2022/03/05 03:27:56;;;;;;;;;;;;;;;30.36;19.29;100741.13;5077075;28;749;-38
2022/03/05 03:30:21;;;;;;;;;;;;;;;30.17;19.53;100729.97;5090295;28;895;-37
2022/03/05 03:32:47;;;;;;;;;;;;;;;30.53;19.11;100743.44;5074942;28;719;-38
2022/03/05 03:35:12;;;;;;;;;;;;;;;30.18;19.57;100745.22;5076462;28;790;-37
2022/03/05 03:37:38;;;;;;;;;;;;;;;30.16;19.46;100750.00;5077348;28;1893;-38
2022/03/05 03:40:04;;;;;;;;;;;;;;;30.32;19.21;100745.28;5077102;28;754;-40
2022/03/05 03:42:29;;;;;;;;;;;;;;;30.34;19.38;100753.22;5080105;28;806;-39
2022/03/05 03:44:55;;;;;;;;;;;;;;;30.40;19.32;100744.25;5096527;28;785;-40
2022/03/05 03:47:20;;;;;;;;;;;;;;;30.28;19.43;100754.88;5078009;28;895;-39
2022/03/05 03:49:45;;;;;;;;;;;;;;;30.35;19.48;100755.72;5076312;28;798;-39
2022/03/05 03:52:13;;;;;;;;;;;;;;;30.27;19.34;100762.19;5076769;28;825;-37
2022/03/05 03:54:38;;;;;;;;;;;;;;;29.90;19.91;100765.13;5081093;28;915;-37
2022/03/05 03:57:03;;;;;;;;;;;;;;;30.10;19.51;100763.53;5078065;28;846;-37
2022/03/05 03:59:29;;;;;;;;;;;;;;;30.22;19.35;100770.09;5096239;28;1878;-38
2022/03/05 04:01:54;;;;;;;;;;;;;;;30.31;19.16;100771.56;5077464;28;1127;-39
2022/03/05 04:04:19;;;;;;;;;;;;;;;30.48;19.28;100770.38;5095472;28;786;-39
2022/03/05 04:09:28;;;;;;;;;;;;;;;30.73;19.08;100769.78;5071081;28;600;-39
2022/03/05 04:11:54;;;;;;;;;;;;;;;30.21;19.45;100782.00;5076644;28;758;-38
2022/03/05 04:14:19;;;;;;;;;;;;;;;29.84;19.87;100784.94;5076371;28;801;-38
2022/03/05 04:16:44;;;;;;;;;;;;;;;29.64;20.34;100782.09;5078065;28;997;-38
2022/03/05 04:19:10;;;;;;;;;;;;;;;29.58;20.31;100781.84;5057368;28;1918;-40
2022/03/05 04:21:35;;;;;;;;;;;;;;;29.29;20.37;100791.88;5095239;28;826;-40
2022/03/05 04:24:00;;;;;;;;;;;;;;;29.41;19.67;100796.75;5095338;28;814;-40
2022/03/05 04:26:25;;;;;;;;;;;;;;;29.53;19.45;100795.16;5095773;28;849;-40
2022/03/05 04:28:51;;;;;;;;;;;;;;;29.58;19.16;100808.94;5094214;28;1142;-40
2022/03/05 04:31:16;;;;;;;;;;;;;;;29.74;19.21;100803.44;5052028;28;1219;-39
2022/03/05 04:33:41;;;;;;;;;;;;;;;29.88;18.85;100799.75;5065345;28;1317;-40
2022/03/05 04:36:07;;;;;;;;;;;;;;;30.04;18.50;100812.16;5066160;28;1179;-40
2022/03/05 04:38:32;;;;;;;;;;;;;;;29.89;16.89;100809.59;5071812;28;1967;-39
2022/03/05 04:40:57;;;;;;;;;;;;;;;29.43;17.26;100819.88;5088457;28;885;-38
2022/03/05 04:43:23;;;;;;;;;;;;;;;27.06;15.38;100806.13;5095509;28;861;-39
2022/03/05 04:45:48;;;;;;;;;;;;;;;25.98;18.08;100812.91;5082650;28;1297;-41
2022/03/05 04:48:13;;;;;;;;;;;;;;;27.39;18.74;100822.03;5067930;28;763;-40
2022/03/05 04:50:39;;;;;;;;;;;;;;;28.50;17.31;100826.06;5095873;28;950;-40
2022/03/05 04:53:04;;;;;;;;;;;;;;;28.67;16.74;100832.94;5071042;28;1373;-41
2022/03/05 04:55:29;;;;;;;;;;;;;;;28.40;16.67;100823.66;5066893;28;1488;-38
2022/03/05 04:57:54;;;;;;;;;;;;;;;27.89;15.87;100828.84;5082672;28;1902;-39
2022/03/05 05:00:20;;;;;;;;;;;;;;;28.16;16.78;100826.47;5073101;28;931;-41
2022/03/05 05:02:45;;;;;;;;;;;;;;;28.50;16.40;100829.63;5075965;28;758;-39
2022/03/05 05:05:10;;;;;;;;;;;;;;;28.39;16.82;100824.72;5075522;28;876;-43
2022/03/05 05:07:37;;;;;;;;;;;;;;;28.76;17.36;100830.13;5078707;28;1038;-39
2022/03/05 05:10:02;;;;;;;;;;;;;;;28.91;17.04;100836.28;5079223;28;853;-38
2022/03/05 05:12:27;;;;;;;;;;;;;;;28.56;17.58;100830.75;5097554;28;831;-40
2022/03/05 05:14:52;;;;;;;;;;;;;;;29.02;17.33;100836.84;5081181;28;810;-39
2022/03/05 05:17:18;;;;;;;;;;;;;;;28.95;17.14;100840.31;5093075;28;1021;-39
2022/03/05 05:19:43;;;;;;;;;;;;;;;29.01;17.28;100841.41;5098942;28;1909;-39
2022/03/05 05:22:08;;;;;;;;;;;;;;;28.52;20.21;100843.81;5098916;28;909;-40
2022/03/05 05:24:34;;;;;;;;;;;;;;;28.47;19.08;100840.84;5086328;28;919;-42
2022/03/05 05:27:00;;;;;;;;;;;;;;;28.85;17.95;100845.19;5098773;28;778;-41
2022/03/05 05:29:25;;;;;;;;;;;;;;;29.48;17.40;100848.28;5099102;28;797;-39
2022/03/05 05:31:50;;;;;;;;;;;;;;;29.60;17.49;100852.13;5082274;28;856;-39
2022/03/05 05:34:16;;;;;;;;;;;;;;;29.67;17.39;100850.31;5079110;28;897;-40
2022/03/05 05:36:41;;;;;;;;;;;;;;;29.75;17.45;100851.19;5087258;28;801;-40
2022/03/05 05:39:07;;;;;;;;;;;;;;;29.94;17.37;100853.22;5080648;28;1882;-40
2022/03/05 05:41:33;;;;;;;;;;;;;;;29.39;18.94;100855.72;5098823;28;883;-42
2022/03/05 05:43:58;;;;;;;;;;;;;;;29.07;18.60;100856.91;5098723;28;821;-40
2022/03/05 05:46:23;;;;;;;;;;;;;;;29.60;17.92;100854.84;5093383;28;918;-40
2022/03/05 05:48:49;;;;;;;;;;;;;;;29.90;17.80;100862.78;5086731;28;776;-40
2022/03/05 05:51:14;;;;;;;;;;;;;;;29.96;17.73;100866.56;5098547;28;897;-39
2022/03/05 05:53:39;;;;;;;;;;;;;;;30.09;17.70;100863.09;5098279;28;826;-38
2022/03/05 05:56:04;;;;;;;;;;;;;;;30.05;17.86;100865.34;5098420;28;869;-42
2022/03/05 05:58:30;;;;;;;;;;;;;;;30.29;17.57;100867.81;5098363;28;1973;-43
2022/03/05 06:00:55;;;;;;;;;;;;;;;29.90;17.87;100876.31;5071385;28;1404;-39
2022/03/05 06:03:20;;;;;;;;;;;;;;;29.28;18.77;100873.34;5095154;28;822;-39
2022/03/05 06:05:46;;;;;;;;;;;;;;;29.50;18.75;100884.97;5079435;28;868;-39
2022/03/05 06:08:11;;;;;;;;;;;;;;;29.82;18.43;100899.03;5097651;28;1189;-39
2022/03/05 06:10:36;;;;;;;;;;;;;;;30.07;18.38;100895.00;5098311;28;885;-39
2022/03/05 06:13:02;;;;;;;;;;;;;;;30.20;18.32;100899.69;5093539;28;1417;-39
2022/03/05 06:15:27;;;;;;;;;;;;;;;30.39;17.90;100895.41;5077388;28;1254;-42
2022/03/05 06:17:57;;;;;;;;;;;;;;;30.62;18.06;100901.53;5077491;28;1963;-41
2022/03/05 06:20:22;;;;;;;;;;;;;;;30.26;18.19;100893.44;5077939;28;1092;-42
2022/03/05 06:22:47;;;;;;;;;;;;;;;30.33;18.31;100895.38;5077837;28;1127;-40
2022/03/05 06:25:12;;;;;;;;;;;;;;;30.17;18.51;100900.06;5078363;28;779;-39
2022/03/05 06:27:38;;;;;;;;;;;;;;;30.30;18.53;100902.03;5079594;28;1036;-41
2022/03/05 06:30:03;;;;;;;;;;;;;;;30.31;18.55;100909.16;5076663;28;1226;-40
2022/03/05 06:32:28;;;;;;;;;;;;;;;30.51;18.17;100903.78;5075355;28;1561;-42
2022/03/05 06:34:54;;;;;;;;;;;;;;;30.54;18.25;100908.84;5078016;28;845;-43
2022/03/05 06:37:20;;;;;;;;;;;;;;;30.79;17.98;100911.00;5078444;28;870;-42
2022/03/05 06:39:45;;;;;;;;;;;;;;;29.98;18.66;100910.59;5055310;28;1973;-41
2022/03/05 06:42:11;;;;;;;;;;;;;;;29.63;19.18;100908.66;5097376;28;818;-41
2022/03/05 06:44:36;;;;;;;;;;;;;;;29.61;19.38;100910.75;5097297;28;833;-42
2022/03/05 06:47:02;;;;;;;;;;;;;;;29.73;19.44;100916.47;5079322;28;993;-40
2022/03/05 06:49:27;;;;;;;;;;;;;;;29.94;18.95;100907.44;5077655;28;817;-40
2022/03/05 06:51:53;;;;;;;;;;;;;;;30.37;18.72;100910.19;5077715;28;806;-43
2022/03/05 06:54:18;;;;;;;;;;;;;;;30.77;18.31;100909.53;5095896;28;822;-40
2022/03/05 06:56:43;;;;;;;;;;;;;;;30.50;18.29;100915.69;5096946;28;757;-41
2022/03/05 06:59:08;;;;;;;;;;;;;;;29.86;18.45;100918.47;5097428;28;1894;-41
2022/03/05 07:01:34;;;;;;;;;;;;;;;29.47;19.18;100917.91;5084426;28;914;-43
2022/03/05 07:03:59;;;;;;;;;;;;;;;29.74;18.51;100915.44;5077163;28;817;-39
2022/03/05 07:06:24;;;;;;;;;;;;;;;30.48;18.22;100916.94;5087128;28;965;-43
2022/03/05 07:08:49;;;;;;;;;;;;;;;30.85;17.60;100916.66;5096813;28;738;-40
2022/03/05 07:11:15;;;;;;;;;;;;;;;30.27;17.96;100916.84;5096574;28;896;-42
2022/03/05 07:13:40;;;;;;;;;;;;;;;30.06;18.28;100915.84;5097080;28;821;-41
2022/03/05 07:16:05;;;;;;;;;;;;;;;30.03;18.59;100921.69;5089698;28;847;-44
2022/03/05 07:18:31;;;;;;;;;;;;;;;29.91;18.66;100918.66;5091899;28;1973;-40
2022/03/05 07:20:57;;;;;;;;;;;;;;;29.84;18.79;100923.22;5096880;28;861;-40
2022/03/05 07:23:23;;;;;;;;;;;;;;;29.77;19.21;100927.75;5096251;28;817;-41
2022/03/05 07:25:48;;;;;;;;;;;;;;;30.14;18.86;100931.16;5096436;28;802;-40
2022/03/05 07:28:13;;;;;;;;;;;;;;;30.60;18.17;100928.03;5096823;28;758;-44
2022/03/05 07:30:39;;;;;;;;;;;;;;;30.63;18.13;100931.19;5087425;28;861;-43
2022/03/05 07:33:04;;;;;;;;;;;;;;;30.17;18.00;100930.75;5095645;28;837;-40
2022/03/05 07:35:30;;;;;;;;;;;;;;;30.00;18.80;100926.66;5096391;28;1040;-43
2022/03/05 07:37:55;;;;;;;;;;;;;;;30.53;18.42;100934.28;5096109;28;1965;-43
2022/03/05 07:40:20;;;;;;;;;;;;;;;30.87;17.90;100941.75;5096090;28;893;-41
2022/03/05 07:42:45;;;;;;;;;;;;;;;30.59;17.99;100943.50;5095859;28;833;-41
2022/03/05 07:45:11;;;;;;;;;;;;;;;30.51;18.08;100944.50;5092891;28;943;-42
2022/03/05 07:47:36;;;;;;;;;;;;;;;30.41;18.35;100944.88;5073437;28;1026;-42
2022/03/05 07:50:02;;;;;;;;;;;;;;;30.12;18.67;100941.34;5096564;28;787;-41
2022/03/05 07:52:27;;;;;;;;;;;;;;;29.99;18.92;100947.53;5095944;28;822;-43
2022/03/05 07:54:52;;;;;;;;;;;;;;;29.86;19.01;100948.28;5096000;28;739;-42
2022/03/05 07:57:18;;;;;;;;;;;;;;;29.69;19.28;100945.00;5083887;28;799;-41
2022/03/05 07:59:43;;;;;;;;;;;;;;;29.53;19.60;100941.50;5095586;28;1952;-44
2022/03/05 08:02:08;;;;;;;;;;;;;;;29.38;19.77;100946.19;5079590;28;978;-44
2022/03/05 08:04:33;;;;;;;;;;;;;;;29.46;19.85;100943.34;5076331;28;810;-41
2022/03/05 08:06:59;;;;;;;;;;;;;;;29.97;19.51;100951.47;5076159;28;1110;-42
2022/03/05 08:09:24;;;;;;;;;;;;;;;30.70;18.56;100947.50;5081348;28;864;-42
2022/03/05 08:11:49;;;;;;;;;;;;;;;30.40;18.40;100945.06;5095986;28;857;-41
2022/03/05 08:14:15;;;;;;;;;;;;;;;30.32;18.71;100948.81;5095756;28;776;-42
2022/03/05 08:16:40;;;;;;;;;;;;;;;30.23;18.81;100955.44;5080523;28;860;-42
2022/03/05 08:19:05;;;;;;;;;;;;;;;30.31;18.96;100955.28;5095422;28;1910;-41
2022/03/05 08:21:32;;;;;;;;;;;;;;;30.43;18.86;100952.81;5086022;28;790;-41
2022/03/05 08:23:58;;;;;;;;;;;;;;;30.94;18.47;100955.34;5095330;28;786;-41
2022/03/05 08:26:23;;;;;;;;;;;;;;;30.41;18.83;100942.16;5095737;28;881;-42
2022/03/05 08:28:48;;;;;;;;;;;;;;;30.29;18.80;100958.19;5095539;28;762;-40
2022/03/05 08:31:14;;;;;;;;;;;;;;;30.13;18.94;100953.06;5090841;28;1018;-42
2022/03/05 08:33:39;;;;;;;;;;;;;;;30.12;19.51;100956.78;5095849;28;828;-43
2022/03/05 08:36:05;;;;;;;;;;;;;;;30.30;19.22;100953.59;5093745;28;838;-41
2022/03/05 08:38:31;;;;;;;;;;;;;;;30.64;18.99;100951.91;5091255;28;1965;-41
2022/03/05 08:40:57;;;;;;;;;;;;;;;30.99;18.35;100950.16;5077600;28;794;-41
2022/03/05 08:43:22;;;;;;;;;;;;;;;30.05;18.37;100943.16;5080420;28;771;-41
2022/03/05 08:45:48;;;;;;;;;;;;;;;29.61;18.27;100945.16;5065199;28;885;-40
2022/03/05 08:48:13;;;;;;;;;;;;;;;29.33;18.47;100953.00;5089597;28;773;-41
2022/03/05 08:50:38;;;;;;;;;;;;;;;29.41;19.14;100946.59;5099777;28;815;-41
2022/03/05 08:53:04;;;;;;;;;;;;;;;29.92;18.59;100946.63;5099810;28;897;-41
2022/03/05 08:55:29;;;;;;;;;;;;;;;30.49;17.83;100946.59;5099486;28;801;-41
2022/03/05 08:57:54;;;;;;;;;;;;;;;30.57;17.86;100951.00;5099097;28;1964;-42
2022/03/05 09:00:20;;;;;;;;;;;;;;;30.19;18.42;100946.81;5097457;28;785;-42
2022/03/05 09:02:46;;;;;;;;;;;;;;;30.76;17.76;100948.59;5079707;28;838;-41
2022/03/05 09:05:14;;;;;;;;;;;;;;;30.63;17.73;100954.81;5079713;28;798;-41
2022/03/05 09:07:39;;;;;;;;;;;;;;;30.51;17.83;100963.50;5079218;28;1012;-41
2022/03/05 09:10:05;;;;;;;;;;;;;;;30.33;18.02;100953.19;5080008;28;828;-41
2022/03/05 09:12:30;;;;;;;;;;;;;;;30.37;18.18;100956.34;5075447;28;834;-43
2022/03/05 09:14:56;;;;;;;;;;;;;;;29.92;18.84;100957.50;5098776;28;1366;-41
2022/03/05 09:17:22;;;;;;;;;;;;;;;29.98;19.00;100967.53;5090725;28;986;-40
2022/03/05 09:19:47;;;;;;;;;;;;;;;30.54;18.37;100965.84;5099337;28;1902;-43
2022/03/05 09:22:12;;;;;;;;;;;;;;;30.62;18.02;100959.41;5098800;28;774;-42
2022/03/05 09:24:38;;;;;;;;;;;;;;;30.72;18.10;100958.16;5098947;28;813;-41
2022/03/05 09:27:03;;;;;;;;;;;;;;;30.77;17.89;100961.13;5098175;28;980;-41
2022/03/05 09:29:29;;;;;;;;;;;;;;;30.65;18.52;100969.84;5098534;28;726;-42
2022/03/05 09:31:55;;;;;;;;;;;;;;;30.95;18.14;100965.19;5090510;28;916;-43
2022/03/05 09:34:20;;;;;;;;;;;;;;;31.06;17.81;100971.91;5078909;28;1195;-44
2022/03/05 09:36:45;;;;;;;;;;;;;;;31.35;17.81;100967.13;5060861;28;1139;-42
2022/03/05 09:39:11;;;;;;;;;;;;;;;31.31;17.47;100972.19;5086000;28;1925;-43
2022/03/05 09:41:39;;;;;;;;;;;;;;;30.82;17.93;100971.41;5098773;28;841;-43
2022/03/05 09:44:05;;;;;;;;;;;;;;;30.68;18.73;100974.88;5098264;28;1144;-41
2022/03/05 09:46:30;;;;;;;;;;;;;;;30.73;18.69;100973.44;5087875;28;887;-41
2022/03/05 09:48:56;;;;;;;;;;;;;;;31.08;18.20;100976.06;5079088;28;802;-43
2022/03/05 09:51:22;;;;;;;;;;;;;;;31.03;18.06;100970.44;5063258;28;1524;-41
2022/03/05 09:53:47;;;;;;;;;;;;;;;31.14;18.22;100969.00;5097826;28;765;-44
2022/03/05 09:56:12;;;;;;;;;;;;;;;30.90;18.53;100974.78;5098645;28;954;-42
2022/03/05 09:58:38;;;;;;;;;;;;;;;30.65;18.63;100969.84;5097989;28;1901;-42
2022/03/05 10:01:04;;;;;;;;;;;;;;;30.81;18.73;100967.00;5088750;28;1001;-42
2022/03/05 10:03:29;;;;;;;;;;;;;;;31.19;18.08;100963.78;5094861;28;762;-41
2022/03/05 10:06:06;;;;;;;;;;;;;;;31.02;18.28;100956.00;5098037;28;867;-42
2022/03/05 10:08:31;;;;;;;;;;;;;;;30.89;18.21;100959.53;5080285;28;1167;-43
2022/03/05 10:10:59;;;;;;;;;;;;;;;30.88;18.55;100965.16;5098064;28;766;-41
2022/03/05 10:13:31;;;;;;;;;;;;;;;30.73;18.79;100965.28;5097884;28;774;-42
2022/03/05 10:15:57;;;;;;;;;;;;;;;31.13;18.54;100957.28;5089753;28;836;-42
2022/03/05 10:18:29;;;;;;;;;;;;;;;31.05;18.16;100960.19;5083048;28;1906;-41
2022/03/05 10:20:55;;;;;;;;;;;;;;;30.88;18.24;100959.75;5076745;28;1288;-41
2022/03/05 10:23:20;;;;;;;;;;;;;;;30.82;18.77;100947.81;5078590;28;859;-45
2022/03/05 10:25:46;;;;;;;;;;;;;;;30.67;18.95;100948.78;5077995;28;841;-41
2022/03/05 10:28:22;;;;;;;;;;;;;;;30.97;18.59;100938.63;5077992;28;822;-42
2022/03/05 10:30:48;;;;;;;;;;;;;;;31.06;17.87;100948.28;5076517;28;855;-42
2022/03/05 10:33:23;;;;;;;;;;;;;;;31.05;17.59;100949.31;5078393;28;827;-41
2022/03/05 10:35:48;;;;;;;;;;;;;;;30.98;17.79;100946.59;5078107;28;906;-42
2022/03/05 10:38:13;;;;;;;;;;;;;;;30.87;18.37;100948.03;5077900;28;1894;-42
2022/03/05 10:40:39;;;;;;;;;;;;;;;30.89;18.31;100948.66;5077529;28;806;-43
2022/03/05 10:43:05;;;;;;;;;;;;;;;31.38;17.95;100950.44;5088066;28;850;-42
2022/03/05 10:45:32;;;;;;;;;;;;;;;31.71;17.42;100941.50;5091817;28;863;-42
2022/03/05 10:47:59;;;;;;;;;;;;;;;31.59;17.45;100945.88;5059732;28;901;-43
2022/03/05 10:50:28;;;;;;;;;;;;;;;31.33;17.76;100942.88;5059784;28;1072;-43
2022/03/05 10:53:00;;;;;;;;;;;;;;;31.10;18.21;100948.69;5077549;28;1242;-40
2022/03/05 10:55:26;;;;;;;;;;;;;;;31.32;17.82;100937.66;5067924;28;838;-41
2022/03/05 10:57:57;;;;;;;;;;;;;;;32.06;17.41;100945.03;5097134;28;1970;-42
2022/03/05 11:00:23;;;;;;;;;;;;;;;32.25;16.95;100944.13;5094100;28;874;-43
2022/03/05 11:02:51;;;;;;;;;;;;;;;31.35;18.05;100940.81;5092547;28;869;-42
2022/03/05 11:05:17;;;;;;;;;;;;;;;30.96;18.27;100940.53;5090197;28;1039;-44
2022/03/05 11:07:43;;;;;;;;;;;;;;;31.74;17.41;100938.34;5080760;28;1262;-41
2022/03/05 11:10:08;;;;;;;;;;;;;;;32.49;16.70;100951.81;5079057;28;865;-42
2022/03/05 11:12:34;;;;;;;;;;;;;;;31.52;17.82;100945.88;5096784;28;1631;-41
2022/03/05 11:14:59;;;;;;;;;;;;;;;31.10;18.54;100941.41;5077902;28;846;-42
2022/03/05 11:17:24;;;;;;;;;;;;;;;31.46;18.11;100947.56;5093752;28;876;-41
2022/03/05 11:19:50;;;;;;;;;;;;;;;32.03;17.16;100940.84;5074428;28;1965;-43
2022/03/05 11:22:15;;;;;;;;;;;;;;;32.33;16.90;100944.97;5096512;28;755;-44
2022/03/05 11:24:41;;;;;;;;;;;;;;;31.21;18.32;100941.84;5084977;28;1134;-41
2022/03/05 11:27:06;;;;;;;;;;;;;;;30.54;18.89;100933.28;5059131;28;1257;-41
2022/03/05 11:29:51;;;;;;;;;;;;;;;30.81;19.09;100937.16;5047383;28;1510;-41
2022/03/05 11:32:16;;;;;;;;;;;;;;;31.01;18.33;100934.50;5077989;28;862;-42
2022/03/05 11:34:46;;;;;;;;;;;;;;;31.07;18.44;100933.66;5093753;28;825;-46
2022/03/05 11:37:22;;;;;;;;;;;;;;;31.11;18.61;100934.09;5095962;28;900;-44
2022/03/05 11:39:48;;;;;;;;;;;;;;;30.77;19.07;100933.97;5096281;28;1905;-40
2022/03/05 11:42:14;;;;;;;;;;;;;;;30.84;18.81;100928.59;5095999;28;868;-40
2022/03/05 11:44:40;;;;;;;;;;;;;;;30.79;18.39;100932.72;5073666;28;1371;-42
2022/03/05 11:47:18;;;;;;;;;;;;;;;30.87;18.46;100922.75;5085212;28;828;-42
2022/03/05 11:49:56;;;;;;;;;;;;;;;30.90;18.63;100923.16;5096062;28;877;-42
2022/03/05 11:52:22;;;;;;;;;;;;;;;30.63;18.92;100927.66;5096277;28;837;-41
2022/03/05 11:55:10;;;;;;;;;;;;;;;30.93;18.92;100924.63;5096270;28;853;-41
2022/03/05 11:57:35;;;;;;;;;;;;;;;30.68;18.41;100925.16;5083882;28;1127;-41
2022/03/05 12:00:03;;;;;;;;;;;;;;;30.70;18.40;100933.13;5092315;28;1906;-40
2022/03/05 12:02:42;;;;;;;;;;;;;;;30.67;18.73;100921.63;5074318;28;978;-41
2022/03/05 12:05:07;;;;;;;;;;;;;;;30.53;19.17;100928.84;5076425;28;809;-41
2022/03/05 12:07:36;;;;;;;;;;;;;;;30.64;18.85;100923.91;5076107;28;1025;-39
2022/03/05 12:10:03;;;;;;;;;;;;;;;30.50;18.13;100926.56;5076599;28;1526;-42
2022/03/05 12:12:28;;;;;;;;;;;;;;;30.52;18.33;100924.47;5074311;28;1359;-42
2022/03/05 12:14:59;;;;;;;;;;;;;;;30.37;18.86;100930.03;5077138;28;1132;-41
2022/03/05 12:17:25;;;;;;;;;;;;;;;30.50;18.99;100929.25;5087544;28;926;-41
2022/03/05 12:19:50;;;;;;;;;;;;;;;30.63;18.86;100933.09;5074659;28;1914;-39
2022/03/05 12:22:15;;;;;;;;;;;;;;;30.81;18.32;100937.16;5076094;28;956;-41
2022/03/05 12:24:41;;;;;;;;;;;;;;;30.57;18.32;100944.75;5081696;28;858;-42
2022/03/05 12:27:09;;;;;;;;;;;;;;;30.40;18.46;100950.50;5095849;28;817;-42
2022/03/05 12:29:35;;;;;;;;;;;;;;;30.43;19.02;100950.94;5077978;28;857;-42
2022/03/05 12:32:00;;;;;;;;;;;;;;;30.34;19.16;100943.16;5077412;28;897;-43
2022/03/05 12:34:26;;;;;;;;;;;;;;;30.70;18.78;100946.69;5076025;28;1223;-42
2022/03/05 12:36:51;;;;;;;;;;;;;;;30.50;18.45;100956.41;5083931;28;1320;-40
2022/03/05 12:39:17;;;;;;;;;;;;;;;30.56;18.65;100952.06;5077430;28;1910;-42
2022/03/05 12:41:42;;;;;;;;;;;;;;;30.50;19.00;100948.25;5077201;28;1185;-41
2022/03/05 12:44:08;;;;;;;;;;;;;;;30.52;19.09;100954.34;5095874;28;821;-42
2022/03/05 12:46:34;;;;;;;;;;;;;;;30.75;18.69;100945.03;5089428;28;894;-41
2022/03/05 12:49:06;;;;;;;;;;;;;;;30.50;18.20;100952.84;5088496;28;857;-42